sensor_id;sensor_type;location;lat;lon;timestamp;pressure;altitude;pressure_sealevel;temperature;humidity
43553;BME280;29153;42.696;23.218;2022-10-31T00:01:35;94960.08;;;7.82;91.51
43553;BME280;29153;42.696;23.218;2022-10-31T00:04:03;94957.86;;;7.74;91.53
43553;BME280;29153;42.696;23.218;2022-10-31T00:06:32;94948.67;;;7.79;91.58
43553;BME280;29153;42.696;23.218;2022-10-31T00:09:01;94950.27;;;7.80;91.42
43553;BME280;29153;42.696;23.218;2022-10-31T00:11:29;94954.21;;;7.77;91.45
43553;BME280;29153;42.696;23.218;2022-10-31T00:13:58;94962.64;;;7.77;91.43
43553;BME280;29153;42.696;23.218;2022-10-31T00:16:27;94961.25;;;7.72;91.58
43553;BME280;29153;42.696;23.218;2022-10-31T00:18:57;94957.53;;;7.70;91.42
43553;BME280;29153;42.696;23.218;2022-10-31T00:21:26;94960.73;;;7.72;91.44
43553;BME280;29153;42.696;23.218;2022-10-31T00:23:54;94965.14;;;7.67;91.16
43553;BME280;29153;42.696;23.218;2022-10-31T00:26:21;94966.97;;;7.66;91.29
43553;BME280;29153;42.696;23.218;2022-10-31T00:28:49;94961.39;;;7.63;91.31
43553;BME280;29153;42.696;23.218;2022-10-31T00:31:17;94961.11;;;7.62;91.52
43553;BME280;29153;42.696;23.218;2022-10-31T00:33:45;94954.99;;;7.56;91.52
43553;BME280;29153;42.696;23.218;2022-10-31T00:36:17;94959.39;;;7.51;91.74
43553;BME280;29153;42.696;23.218;2022-10-31T00:38:46;94957.27;;;7.50;91.78
43553;BME280;29153;42.696;23.218;2022-10-31T00:41:16;94957.98;;;7.43;92.06
43553;BME280;29153;42.696;23.218;2022-10-31T00:43:43;94955.58;;;7.42;92.05
43553;BME280;29153;42.696;23.218;2022-10-31T00:46:12;94956.81;;;7.37;92.30
43553;BME280;29153;42.696;23.218;2022-10-31T00:48:40;94949.97;;;7.36;92.58
43553;BME280;29153;42.696;23.218;2022-10-31T00:51:07;94951.42;;;7.26;92.86
43553;BME280;29153;42.696;23.218;2022-10-31T00:53:35;94944.70;;;7.36;92.71
43553;BME280;29153;42.696;23.218;2022-10-31T00:56:03;94943.33;;;7.33;92.44
43553;BME280;29153;42.696;23.218;2022-10-31T00:58:30;94944.34;;;7.29;92.68
43553;BME280;29153;42.696;23.218;2022-10-31T01:00:58;94943.25;;;7.28;92.75
43553;BME280;29153;42.696;23.218;2022-10-31T01:03:28;94951.66;;;7.25;93.13
43553;BME280;29153;42.696;23.218;2022-10-31T01:06:00;94957.23;;;7.28;93.38
43553;BME280;29153;42.696;23.218;2022-10-31T01:08:28;94957.53;;;7.32;93.49
43553;BME280;29153;42.696;23.218;2022-10-31T01:11:10;94952.76;;;7.29;93.47
43553;BME280;29153;42.696;23.218;2022-10-31T01:13:38;94955.91;;;7.28;93.79
43553;BME280;29153;42.696;23.218;2022-10-31T01:16:08;94958.45;;;7.21;94.35
43553;BME280;29153;42.696;23.218;2022-10-31T01:18:36;94959.78;;;7.23;94.63
43553;BME280;29153;42.696;23.218;2022-10-31T01:21:16;94960.95;;;7.30;94.74
43553;BME280;29153;42.696;23.218;2022-10-31T01:23:40;94964.47;;;7.36;94.61
43553;BME280;29153;42.696;23.218;2022-10-31T01:28:50;94963.55;;;7.47;94.85
43553;BME280;29153;42.696;23.218;2022-10-31T01:31:19;94960.73;;;7.53;95.37
43553;BME280;29153;42.696;23.218;2022-10-31T01:33:48;94959.79;;;7.62;95.85
43553;BME280;29153;42.696;23.218;2022-10-31T01:36:23;94961.98;;;7.87;95.82
43553;BME280;29153;42.696;23.218;2022-10-31T01:38:53;94957.30;;;7.94;95.86
43553;BME280;29153;42.696;23.218;2022-10-31T01:41:24;94962.14;;;8.02;96.01
43553;BME280;29153;42.696;23.218;2022-10-31T01:44:00;94955.91;;;8.10;96.07
43553;BME280;29153;42.696;23.218;2022-10-31T01:46:37;94958.17;;;8.23;95.59
43553;BME280;29153;42.696;23.218;2022-10-31T01:49:13;94960.06;;;8.28;95.39
43553;BME280;29153;42.696;23.218;2022-10-31T01:51:37;94959.94;;;8.37;95.19
43553;BME280;29153;42.696;23.218;2022-10-31T01:54:08;94963.98;;;8.47;94.97
43553;BME280;29153;42.696;23.218;2022-10-31T01:56:37;94949.56;;;8.57;94.57
43553;BME280;29153;42.696;23.218;2022-10-31T01:59:08;94951.97;;;8.59;94.53
43553;BME280;29153;42.696;23.218;2022-10-31T02:01:37;94955.17;;;8.63;94.72
43553;BME280;29153;42.696;23.218;2022-10-31T02:04:05;94958.92;;;8.70;94.65
43553;BME280;29153;42.696;23.218;2022-10-31T02:09:20;94958.00;;;8.86;94.54
43553;BME280;29153;42.696;23.218;2022-10-31T02:11:54;94957.80;;;8.93;94.36
43553;BME280;29153;42.696;23.218;2022-10-31T02:14:24;94958.65;;;8.98;94.23
43553;BME280;29153;42.696;23.218;2022-10-31T02:16:54;94954.42;;;9.00;94.33
43553;BME280;29153;42.696;23.218;2022-10-31T02:22:11;94956.67;;;9.18;93.31
43553;BME280;29153;42.696;23.218;2022-10-31T02:25:10;94953.00;;;9.24;92.66
43553;BME280;29153;42.696;23.218;2022-10-31T02:33:00;94967.05;;;9.30;92.84
43553;BME280;29153;42.696;23.218;2022-10-31T02:41:05;94973.15;;;9.33;93.12
43553;BME280;29153;42.696;23.218;2022-10-31T02:46:23;94981.69;;;9.42;92.94
43553;BME280;29153;42.696;23.218;2022-10-31T02:48:48;94981.72;;;9.45;92.79
43553;BME280;29153;42.696;23.218;2022-10-31T02:51:18;94977.51;;;9.49;92.71
43553;BME280;29153;42.696;23.218;2022-10-31T02:53:45;94982.27;;;9.49;92.59
43553;BME280;29153;42.696;23.218;2022-10-31T02:56:15;94984.60;;;9.41;93.13
43553;BME280;29153;42.696;23.218;2022-10-31T02:58:48;94986.16;;;9.37;93.50
43553;BME280;29153;42.696;23.218;2022-10-31T03:09:17;94997.55;;;9.40;93.95
43553;BME280;29153;42.696;23.218;2022-10-31T03:11:52;94992.53;;;9.41;94.37
43553;BME280;29153;42.696;23.218;2022-10-31T03:14:22;94995.18;;;9.43;94.30
43553;BME280;29153;42.696;23.218;2022-10-31T03:16:50;94897.31;;;8.94;93.32
43553;BME280;29153;42.696;23.218;2022-10-31T03:19:25;94984.84;;;9.42;93.77
43553;BME280;29153;42.696;23.218;2022-10-31T03:22:22;94988.72;;;9.27;94.04
43553;BME280;29153;42.696;23.218;2022-10-31T03:24:50;94992.92;;;9.23;94.32
43553;BME280;29153;42.696;23.218;2022-10-31T03:27:26;94991.55;;;9.18;94.33
43553;BME280;29153;42.696;23.218;2022-10-31T03:29:51;94995.48;;;9.12;94.35
43553;BME280;29153;42.696;23.218;2022-10-31T03:32:35;94991.79;;;9.13;93.91
43553;BME280;29153;42.696;23.218;2022-10-31T03:35:03;94990.38;;;9.03;93.68
43553;BME280;29153;42.696;23.218;2022-10-31T03:37:33;94998.20;;;8.91;94.04
43553;BME280;29153;42.696;23.218;2022-10-31T03:40:04;95003.23;;;8.90;94.07
43553;BME280;29153;42.696;23.218;2022-10-31T03:42:34;95006.80;;;8.76;94.31
43553;BME280;29153;42.696;23.218;2022-10-31T03:45:10;95008.64;;;8.78;94.14
43553;BME280;29153;42.696;23.218;2022-10-31T03:47:35;95014.09;;;8.66;94.15
43553;BME280;29153;42.696;23.218;2022-10-31T03:50:05;95009.21;;;8.56;94.51
43553;BME280;29153;42.696;23.218;2022-10-31T03:52:48;95009.77;;;8.55;94.74
43553;BME280;29153;42.696;23.218;2022-10-31T03:55:19;95011.60;;;8.55;94.85
43553;BME280;29153;42.696;23.218;2022-10-31T03:57:48;95007.30;;;8.49;95.18
43553;BME280;29153;42.696;23.218;2022-10-31T04:00:12;95012.56;;;8.46;95.08
43553;BME280;29153;42.696;23.218;2022-10-31T04:05:30;95020.14;;;8.40;94.98
43553;BME280;29153;42.696;23.218;2022-10-31T04:07:59;95024.10;;;8.40;94.62
43553;BME280;29153;42.696;23.218;2022-10-31T04:10:29;95023.79;;;8.34;94.50
43553;BME280;29153;42.696;23.218;2022-10-31T04:13:01;95019.84;;;8.37;94.00
43553;BME280;29153;42.696;23.218;2022-10-31T04:15:28;95024.55;;;8.32;94.29
43553;BME280;29153;42.696;23.218;2022-10-31T04:17:59;95026.90;;;8.31;95.09
43553;BME280;29153;42.696;23.218;2022-10-31T04:20:33;95028.92;;;8.27;95.76
43553;BME280;29153;42.696;23.218;2022-10-31T04:23:01;95029.84;;;8.35;96.25
43553;BME280;29153;42.696;23.218;2022-10-31T04:25:30;95029.38;;;8.40;96.47
43553;BME280;29153;42.696;23.218;2022-10-31T04:27:57;95036.63;;;8.50;96.44
43553;BME280;29153;42.696;23.218;2022-10-31T04:30:25;95032.45;;;8.56;96.51
43553;BME280;29153;42.696;23.218;2022-10-31T04:32:52;95031.47;;;8.60;96.72
43553;BME280;29153;42.696;23.218;2022-10-31T04:35:20;95028.39;;;8.71;97.09
43553;BME280;29153;42.696;23.218;2022-10-31T04:37:47;95028.39;;;8.71;97.09
43553;BME280;29153;42.696;23.218;2022-10-31T04:40:14;95024.78;;;8.79;96.68
43553;BME280;29153;42.696;23.218;2022-10-31T04:42:42;95029.83;;;8.83;96.89
43553;BME280;29153;42.696;23.218;2022-10-31T04:45:10;95028.01;;;8.86;96.76
43553;BME280;29153;42.696;23.218;2022-10-31T04:47:37;95022.50;;;8.90;96.88
43553;BME280;29153;42.696;23.218;2022-10-31T04:50:05;95032.08;;;8.96;96.79
43553;BME280;29153;42.696;23.218;2022-10-31T04:52:38;95034.30;;;9.07;96.30
43553;BME280;29153;42.696;23.218;2022-10-31T04:55:02;95034.07;;;9.11;96.05
43553;BME280;29153;42.696;23.218;2022-10-31T04:57:29;95029.83;;;9.10;95.85
43553;BME280;29153;42.696;23.218;2022-10-31T04:59:57;95038.89;;;9.19;95.79
43553;BME280;29153;42.696;23.218;2022-10-31T05:02:24;95042.81;;;9.17;95.65
43553;BME280;29153;42.696;23.218;2022-10-31T05:04:52;95043.34;;;9.16;96.07
43553;BME280;29153;42.696;23.218;2022-10-31T05:07:19;95049.17;;;9.16;96.04
43553;BME280;29153;42.696;23.218;2022-10-31T05:09:47;95045.64;;;9.07;95.72
43553;BME280;29153;42.696;23.218;2022-10-31T05:12:15;95052.06;;;9.14;95.84
43553;BME280;29153;42.696;23.218;2022-10-31T05:14:42;95057.81;;;9.08;95.87
43553;BME280;29153;42.696;23.218;2022-10-31T05:17:10;95055.91;;;9.01;95.94
43553;BME280;29153;42.696;23.218;2022-10-31T05:19:37;95065.91;;;8.97;96.11
43553;BME280;29153;42.696;23.218;2022-10-31T05:22:04;95064.81;;;8.93;96.35
43553;BME280;29153;42.696;23.218;2022-10-31T05:24:32;95064.29;;;8.93;96.42
43553;BME280;29153;42.696;23.218;2022-10-31T05:26:59;95059.41;;;8.83;96.44
43553;BME280;29153;42.696;23.218;2022-10-31T05:29:27;95062.58;;;8.82;96.27
43553;BME280;29153;42.696;23.218;2022-10-31T05:31:54;95066.39;;;8.67;96.46
43553;BME280;29153;42.696;23.218;2022-10-31T05:34:22;95066.39;;;8.67;96.46
43553;BME280;29153;42.696;23.218;2022-10-31T05:36:49;95061.56;;;8.61;96.29
43553;BME280;29153;42.696;23.218;2022-10-31T05:39:17;95071.55;;;8.57;96.67
43553;BME280;29153;42.696;23.218;2022-10-31T05:41:45;95076.36;;;8.60;96.55
43553;BME280;29153;42.696;23.218;2022-10-31T05:44:12;95071.38;;;8.63;96.08
43553;BME280;29153;42.696;23.218;2022-10-31T05:46:40;95082.67;;;8.59;96.25
43553;BME280;29153;42.696;23.218;2022-10-31T05:49:07;95079.30;;;8.63;96.24
43553;BME280;29153;42.696;23.218;2022-10-31T05:51:34;95087.44;;;8.59;96.55
43553;BME280;29153;42.696;23.218;2022-10-31T05:54:02;95086.92;;;8.60;96.63
43553;BME280;29153;42.696;23.218;2022-10-31T05:56:30;95086.92;;;8.60;96.69
43553;BME280;29153;42.696;23.218;2022-10-31T05:58:57;95091.20;;;8.66;96.59
43553;BME280;29153;42.696;23.218;2022-10-31T06:01:25;95092.50;;;8.63;96.73
43553;BME280;29153;42.696;23.218;2022-10-31T06:03:52;95089.88;;;8.66;96.86
43553;BME280;29153;42.696;23.218;2022-10-31T06:06:20;95061.41;;;8.46;97.15
43553;BME280;29153;42.696;23.218;2022-10-31T06:08:47;95091.38;;;8.81;96.74
43553;BME280;29153;42.696;23.218;2022-10-31T06:11:15;95095.08;;;8.83;96.99
43553;BME280;29153;42.696;23.218;2022-10-31T06:13:42;95098.02;;;8.86;97.17
43553;BME280;29153;42.696;23.218;2022-10-31T06:16:10;95102.31;;;8.92;97.15
43553;BME280;29153;42.696;23.218;2022-10-31T06:18:37;95099.97;;;8.96;97.30
43553;BME280;29153;42.696;23.218;2022-10-31T06:21:05;95105.91;;;9.08;97.48
43553;BME280;29153;42.696;23.218;2022-10-31T06:23:32;95108.36;;;9.14;97.63
43553;BME280;29153;42.696;23.218;2022-10-31T06:26:00;95114.53;;;9.25;97.92
43553;BME280;29153;42.696;23.218;2022-10-31T06:28:27;95114.98;;;9.44;97.60
43553;BME280;29153;42.696;23.218;2022-10-31T06:30:55;95121.45;;;9.58;97.19
43553;BME280;29153;42.696;23.218;2022-10-31T06:33:22;95117.35;;;9.75;96.72
43553;BME280;29153;42.696;23.218;2022-10-31T06:35:50;95117.92;;;9.84;96.59
43553;BME280;29153;42.696;23.218;2022-10-31T06:38:17;95112.20;;;9.97;96.59
43553;BME280;29153;42.696;23.218;2022-10-31T06:40:44;95120.28;;;10.15;96.38
43553;BME280;29153;42.696;23.218;2022-10-31T06:43:12;95113.25;;;11.01;96.06
43553;BME280;29153;42.696;23.218;2022-10-31T06:45:41;95122.01;;;12.60;89.96
43553;BME280;29153;42.696;23.218;2022-10-31T06:48:08;95122.01;;;12.60;89.96
43553;BME280;29153;42.696;23.218;2022-10-31T06:50:36;95123.98;;;14.47;82.08
43553;BME280;29153;42.696;23.218;2022-10-31T06:53:03;95128.28;;;16.37;73.15
43553;BME280;29153;42.696;23.218;2022-10-31T06:55:31;95134.70;;;18.17;65.25
43553;BME280;29153;42.696;23.218;2022-10-31T06:57:59;95130.88;;;19.76;59.83
43553;BME280;29153;42.696;23.218;2022-10-31T07:00:29;95129.57;;;20.89;54.10
43553;BME280;29153;42.696;23.218;2022-10-31T07:02:59;95129.15;;;21.31;51.77
43553;BME280;29153;42.696;23.218;2022-10-31T07:05:28;95100.44;;;22.18;48.41
43553;BME280;29153;42.696;23.218;2022-10-31T07:07:57;95133.52;;;23.17;46.37
43553;BME280;29153;42.696;23.218;2022-10-31T07:10:27;95124.40;;;23.46;42.63
43553;BME280;29153;42.696;23.218;2022-10-31T07:13:00;95127.44;;;23.50;41.38
43553;BME280;29153;42.696;23.218;2022-10-31T07:15:29;95126.55;;;24.04;42.60
43553;BME280;29153;42.696;23.218;2022-10-31T07:18:04;95130.02;;;24.17;43.01
43553;BME280;29153;42.696;23.218;2022-10-31T07:20:33;95126.40;;;24.13;40.50
43553;BME280;29153;42.696;23.218;2022-10-31T07:23:00;95125.42;;;23.99;41.51
43553;BME280;29153;42.696;23.218;2022-10-31T07:25:28;95121.80;;;23.25;41.94
43553;BME280;29153;42.696;23.218;2022-10-31T07:27:56;95124.41;;;22.64;44.89
43553;BME280;29153;42.696;23.218;2022-10-31T07:30:23;95123.53;;;22.01;44.74
43553;BME280;29153;42.696;23.218;2022-10-31T07:32:51;95109.05;;;21.43;45.78
43553;BME280;29153;42.696;23.218;2022-10-31T07:35:23;95110.58;;;20.71;47.22
43553;BME280;29153;42.696;23.218;2022-10-31T07:37:51;95104.96;;;20.21;49.13
43553;BME280;29153;42.696;23.218;2022-10-31T07:40:20;95105.72;;;20.07;53.96
43553;BME280;29153;42.696;23.218;2022-10-31T07:42:49;95113.31;;;19.70;54.01
43553;BME280;29153;42.696;23.218;2022-10-31T07:45:21;95113.01;;;19.72;53.89
43553;BME280;29153;42.696;23.218;2022-10-31T07:47:50;95106.78;;;19.37;54.02
43553;BME280;29153;42.696;23.218;2022-10-31T07:50:24;95114.16;;;19.14;53.48
43553;BME280;29153;42.696;23.218;2022-10-31T07:53:03;95112.16;;;19.08;55.12
43553;BME280;29153;42.696;23.218;2022-10-31T07:55:31;95106.45;;;19.01;53.39
43553;BME280;29153;42.696;23.218;2022-10-31T07:58:00;95103.97;;;18.85;55.64
43553;BME280;29153;42.696;23.218;2022-10-31T08:00:28;95113.50;;;18.60;55.77
43553;BME280;29153;42.696;23.218;2022-10-31T08:03:12;95116.37;;;18.53;54.83
43553;BME280;29153;42.696;23.218;2022-10-31T08:05:36;95112.77;;;18.46;56.46
43553;BME280;29153;42.696;23.218;2022-10-31T08:08:04;95106.44;;;18.42;56.61
43553;BME280;29153;42.696;23.218;2022-10-31T08:10:33;95112.88;;;18.22;57.17
43553;BME280;29153;42.696;23.218;2022-10-31T08:13:08;95115.93;;;18.17;56.77
43553;BME280;29153;42.696;23.218;2022-10-31T08:15:37;95110.66;;;18.24;57.29
43553;BME280;29153;42.696;23.218;2022-10-31T08:18:06;95107.27;;;18.20;59.24
43553;BME280;29153;42.696;23.218;2022-10-31T08:20:35;95115.11;;;18.39;59.51
43553;BME280;29153;42.696;23.218;2022-10-31T08:23:04;95112.47;;;18.48;56.80
43553;BME280;29153;42.696;23.218;2022-10-31T08:25:33;95112.34;;;18.53;56.91
43553;BME280;29153;42.696;23.218;2022-10-31T08:28:01;95123.08;;;18.42;56.80
43553;BME280;29153;42.696;23.218;2022-10-31T08:30:31;95115.03;;;18.42;57.03
43553;BME280;29153;42.696;23.218;2022-10-31T08:33:10;95121.27;;;18.40;58.40
43553;BME280;29153;42.696;23.218;2022-10-31T08:35:29;95113.44;;;18.41;58.64
43553;BME280;29153;42.696;23.218;2022-10-31T08:37:57;95116.30;;;18.44;56.88
43553;BME280;29153;42.696;23.218;2022-10-31T08:40:26;95112.05;;;18.54;58.94
43553;BME280;29153;42.696;23.218;2022-10-31T08:43:13;95113.50;;;18.60;57.70
43553;BME280;29153;42.696;23.218;2022-10-31T08:45:42;95102.28;;;18.58;58.57
43553;BME280;29153;42.696;23.218;2022-10-31T08:48:14;95102.42;;;18.73;59.38
43553;BME280;29153;42.696;23.218;2022-10-31T08:50:43;95105.31;;;18.85;56.86
43553;BME280;29153;42.696;23.218;2022-10-31T08:53:14;95109.86;;;19.04;59.68
43553;BME280;29153;42.696;23.218;2022-10-31T08:55:43;95104.20;;;19.15;59.53
43553;BME280;29153;42.696;23.218;2022-10-31T08:58:13;95103.55;;;19.37;56.64
43553;BME280;29153;42.696;23.218;2022-10-31T09:00:42;95103.64;;;19.43;55.73
43553;BME280;29153;42.696;23.218;2022-10-31T09:03:13;95108.13;;;19.37;55.25
43553;BME280;29153;42.696;23.218;2022-10-31T09:05:41;95106.34;;;19.52;55.19
43553;BME280;29153;42.696;23.218;2022-10-31T09:08:09;95106.04;;;19.62;54.39
43553;BME280;29153;42.696;23.218;2022-10-31T09:10:37;95111.48;;;19.60;56.05
43553;BME280;29153;42.696;23.218;2022-10-31T09:13:13;95112.92;;;19.74;53.81
43553;BME280;29153;42.696;23.218;2022-10-31T09:15:38;95109.68;;;19.75;53.26
43553;BME280;29153;42.696;23.218;2022-10-31T09:18:07;95109.19;;;19.73;53.14
43553;BME280;29153;42.696;23.218;2022-10-31T09:20:36;95106.69;;;19.85;54.53
43553;BME280;29153;42.696;23.218;2022-10-31T09:23:19;95098.82;;;19.94;55.03
43553;BME280;29153;42.696;23.218;2022-10-31T09:25:43;95102.13;;;20.17;54.95
43553;BME280;29153;42.696;23.218;2022-10-31T09:28:11;95098.19;;;20.15;52.96
43553;BME280;29153;42.696;23.218;2022-10-31T09:30:39;95099.13;;;20.36;53.62
43553;BME280;29153;42.696;23.218;2022-10-31T09:33:11;95099.57;;;20.38;51.50
43553;BME280;29153;42.696;23.218;2022-10-31T09:35:40;95097.89;;;20.48;52.16
43553;BME280;29153;42.696;23.218;2022-10-31T09:38:16;95095.68;;;20.41;50.26
43553;BME280;29153;42.696;23.218;2022-10-31T09:41:13;95098.94;;;20.64;51.77
43553;BME280;29153;42.696;23.218;2022-10-31T09:49:50;95090.28;;;20.73;48.93
43553;BME280;29153;42.696;23.218;2022-10-31T09:52:24;95091.41;;;20.87;49.79
43553;BME280;29153;42.696;23.218;2022-10-31T09:54:56;95098.11;;;20.96;46.91
43553;BME280;29153;42.696;23.218;2022-10-31T09:57:27;95088.38;;;20.88;49.04
43553;BME280;29153;42.696;23.218;2022-10-31T09:59:54;95089.62;;;20.76;49.18
43553;BME280;29153;42.696;23.218;2022-10-31T10:04:58;95080.27;;;20.82;47.57
43553;BME280;29153;42.696;23.218;2022-10-31T10:10:25;95081.84;;;20.83;52.04
43553;BME280;29153;42.696;23.218;2022-10-31T10:13:08;95080.69;;;21.08;50.78
43553;BME280;29153;42.696;23.218;2022-10-31T10:26:34;95066.61;;;21.31;47.50
43553;BME280;29153;42.696;23.218;2022-10-31T10:32:00;95058.64;;;21.35;46.93
43553;BME280;29153;42.696;23.218;2022-10-31T10:34:33;95055.25;;;21.47;46.73
43553;BME280;29153;42.696;23.218;2022-10-31T10:37:30;95050.44;;;21.52;46.68
43553;BME280;29153;42.696;23.218;2022-10-31T10:39:43;95053.06;;;21.61;46.57
43553;BME280;29153;42.696;23.218;2022-10-31T10:42:14;95048.19;;;21.69;46.44
43553;BME280;29153;42.696;23.218;2022-10-31T10:45:20;95044.06;;;21.77;45.96
43553;BME280;29153;42.696;23.218;2022-10-31T10:47:56;95035.62;;;21.79;47.05
43553;BME280;29153;42.696;23.218;2022-10-31T10:50:26;95032.41;;;21.86;45.27
43553;BME280;29153;42.696;23.218;2022-10-31T10:55:32;95029.45;;;22.05;45.58
43553;BME280;29153;42.696;23.218;2022-10-31T10:58:08;95028.56;;;21.87;44.68
43553;BME280;29153;42.696;23.218;2022-10-31T11:00:41;95029.66;;;22.00;47.04
43553;BME280;29153;42.696;23.218;2022-10-31T11:03:09;95026.08;;;22.08;43.94
43553;BME280;29153;42.696;23.218;2022-10-31T11:05:57;95027.33;;;22.17;43.22
43553;BME280;29153;42.696;23.218;2022-10-31T11:11:22;95021.38;;;22.17;44.00
43553;BME280;29153;42.696;23.218;2022-10-31T11:13:34;95019.82;;;22.22;42.57
43553;BME280;29153;42.696;23.218;2022-10-31T11:16:07;95018.13;;;22.18;42.78
43553;BME280;29153;42.696;23.218;2022-10-31T11:18:39;95018.03;;;22.20;42.75
43553;BME280;29153;42.696;23.218;2022-10-31T11:21:17;95012.84;;;21.89;45.43
43553;BME280;29153;42.696;23.218;2022-10-31T11:23:35;95006.06;;;21.76;45.68
43553;BME280;29153;42.696;23.218;2022-10-31T11:26:05;95000.97;;;21.96;45.82
43553;BME280;29153;42.696;23.218;2022-10-31T11:28:33;95005.48;;;21.98;44.26
43553;BME280;29153;42.696;23.218;2022-10-31T11:31:01;95000.89;;;21.98;46.37
43553;BME280;29153;42.696;23.218;2022-10-31T11:33:57;94994.58;;;21.94;44.23
43553;BME280;29153;42.696;23.218;2022-10-31T11:36:23;94995.69;;;21.99;43.83
43553;BME280;29153;42.696;23.218;2022-10-31T11:38:52;95001.56;;;22.01;44.14
43553;BME280;29153;42.696;23.218;2022-10-31T11:41:31;94999.19;;;22.00;44.01
43553;BME280;29153;42.696;23.218;2022-10-31T11:44:19;94996.95;;;22.08;41.58
43553;BME280;29153;42.696;23.218;2022-10-31T11:46:44;94998.89;;;21.87;42.43
43553;BME280;29153;42.696;23.218;2022-10-31T11:49:28;94989.80;;;21.91;42.41
43553;BME280;29153;42.696;23.218;2022-10-31T11:51:55;94984.53;;;21.62;45.78
43553;BME280;29153;42.696;23.218;2022-10-31T11:54:26;94981.59;;;21.55;46.33
43553;BME280;29153;42.696;23.218;2022-10-31T11:56:54;94974.81;;;21.43;45.62
43553;BME280;29153;42.696;23.218;2022-10-31T11:59:27;94978.19;;;21.46;43.95
43553;BME280;29153;42.696;23.218;2022-10-31T12:01:58;94970.94;;;21.58;43.49
43553;BME280;29153;42.696;23.218;2022-10-31T12:04:40;94974.58;;;21.68;43.65
43553;BME280;29153;42.696;23.218;2022-10-31T12:07:07;94978.50;;;21.71;43.93
43553;BME280;29153;42.696;23.218;2022-10-31T12:09:36;94975.61;;;21.76;44.68
43553;BME280;29153;42.696;23.218;2022-10-31T12:28:40;94964.50;;;21.84;43.61
43553;BME280;29153;42.696;23.218;2022-10-31T12:34:18;94965.25;;;22.05;42.98
43553;BME280;29153;42.696;23.218;2022-10-31T12:42:27;94958.06;;;22.03;44.29
43553;BME280;29153;42.696;23.218;2022-10-31T12:53:13;94951.92;;;21.88;44.22
43553;BME280;29153;42.696;23.218;2022-10-31T12:58:36;94947.81;;;21.69;45.74
43553;BME280;29153;42.696;23.218;2022-10-31T13:01:26;94953.88;;;21.60;44.17
43553;BME280;29153;42.696;23.218;2022-10-31T13:04:05;94958.69;;;21.61;45.09
43553;BME280;29153;42.696;23.218;2022-10-31T13:06:35;94953.64;;;21.65;43.42
43553;BME280;29153;42.696;23.218;2022-10-31T13:09:08;94953.88;;;21.66;44.33
43553;BME280;29153;42.696;23.218;2022-10-31T13:11:42;94949.19;;;21.75;44.89
43553;BME280;29153;42.696;23.218;2022-10-31T13:16:58;94952.56;;;21.78;43.87
43553;BME280;29153;42.696;23.218;2022-10-31T13:19:36;94951.66;;;21.74;43.99
43553;BME280;29153;42.696;23.218;2022-10-31T13:30:20;94948.48;;;21.66;43.85
43553;BME280;29153;42.696;23.218;2022-10-31T13:33:12;94951.06;;;21.63;43.89
43553;BME280;29153;42.696;23.218;2022-10-31T13:35:51;94946.06;;;21.73;43.20
43553;BME280;29153;42.696;23.218;2022-10-31T13:38:40;94948.84;;;21.65;44.74
43553;BME280;29153;42.696;23.218;2022-10-31T13:44:15;94942.59;;;21.52;44.34
43553;BME280;29153;42.696;23.218;2022-10-31T13:46:44;94945.64;;;21.51;44.31
43553;BME280;29153;42.696;23.218;2022-10-31T13:54:40;94946.72;;;21.44;45.50
43553;BME280;29153;42.696;23.218;2022-10-31T13:57:52;94946.04;;;21.41;46.71
43553;BME280;29153;42.696;23.218;2022-10-31T13:59:46;94949.36;;;21.31;47.52
43553;BME280;29153;42.696;23.218;2022-10-31T14:02:22;94948.35;;;21.09;47.58
43553;BME280;29153;42.696;23.218;2022-10-31T14:04:51;94953.16;;;21.10;47.12
43553;BME280;29153;42.696;23.218;2022-10-31T14:07:22;94951.32;;;21.02;48.97
43553;BME280;29153;42.696;23.218;2022-10-31T14:10:06;94956.89;;;20.97;49.02
43553;BME280;29153;42.696;23.218;2022-10-31T14:12:44;94956.64;;;20.89;48.93
43553;BME280;29153;42.696;23.218;2022-10-31T14:20:42;94960.53;;;20.65;47.64
43553;BME280;29153;42.696;23.218;2022-10-31T14:31:50;94961.97;;;20.48;45.98
43553;BME280;29153;42.696;23.218;2022-10-31T14:34:32;94962.48;;;20.56;44.61
43553;BME280;29153;42.696;23.218;2022-10-31T14:40:26;94958.66;;;20.42;46.17
43553;BME280;29153;42.696;23.218;2022-10-31T14:43:12;94964.41;;;20.24;44.92
43553;BME280;29153;42.696;23.218;2022-10-31T14:45:55;94965.13;;;20.04;46.55
43553;BME280;29153;42.696;23.218;2022-10-31T14:48:32;94958.31;;;19.83;48.67
43553;BME280;29153;42.696;23.218;2022-10-31T14:51:07;94962.23;;;19.62;51.14
43553;BME280;29153;42.696;23.218;2022-10-31T14:53:39;94963.28;;;19.38;52.15
43553;BME280;29153;42.696;23.218;2022-10-31T14:56:08;94956.39;;;19.08;52.98
43553;BME280;29153;42.696;23.218;2022-10-31T14:58:45;94962.78;;;18.84;53.73
43553;BME280;29153;42.696;23.218;2022-10-31T15:01:26;94966.92;;;18.62;54.04
43553;BME280;29153;42.696;23.218;2022-10-31T15:04:04;94961.48;;;18.45;55.05
43553;BME280;29153;42.696;23.218;2022-10-31T15:06:29;94966.16;;;18.22;56.76
43553;BME280;29153;42.696;23.218;2022-10-31T15:08:58;94964.94;;;17.97;57.72
43553;BME280;29153;42.696;23.218;2022-10-31T15:11:26;94963.66;;;17.75;58.54
43553;BME280;29153;42.696;23.218;2022-10-31T15:13:56;94966.80;;;17.55;59.21
43553;BME280;29153;42.696;23.218;2022-10-31T15:16:32;94964.69;;;17.43;60.22
43553;BME280;29153;42.696;23.218;2022-10-31T15:19:05;94963.16;;;17.17;60.83
43553;BME280;29153;42.696;23.218;2022-10-31T15:21:42;94969.68;;;17.03;60.86
43553;BME280;29153;42.696;23.218;2022-10-31T15:24:03;94970.01;;;16.88;61.95
43553;BME280;29153;42.696;23.218;2022-10-31T15:26:37;94972.08;;;16.66;62.37
43553;BME280;29153;42.696;23.218;2022-10-31T15:29:11;94971.97;;;16.44;63.89
43553;BME280;29153;42.696;23.218;2022-10-31T15:31:35;94978.98;;;16.28;64.47